createdAt,value
2022-10-24T00:01:24.659Z,13.80
2022-10-24T00:03:52.260Z,8.93
2022-10-24T00:06:20.850Z,11.00
2022-10-24T00:08:49.013Z,8.85
2022-10-24T00:11:19.735Z,7.10
2022-10-24T00:13:47.266Z,20.73
2022-10-24T00:16:15.384Z,8.90
2022-10-24T00:18:42.977Z,17.08
2022-10-24T00:21:11.080Z,15.23
2022-10-24T00:23:38.805Z,13.55
2022-10-24T00:26:07.337Z,11.73
2022-10-24T00:28:37.738Z,13.25
2022-10-24T00:31:06.414Z,11.85
2022-10-24T00:33:34.177Z,10.80
2022-10-24T00:36:01.724Z,12.60
2022-10-24T00:38:29.250Z,7.57
2022-10-24T00:40:56.874Z,8.13
2022-10-24T00:43:26.773Z,8.68
2022-10-24T00:45:57.319Z,10.43
2022-10-24T00:48:29.123Z,11.30
2022-10-24T00:51:00.073Z,10.52
2022-10-24T00:53:29.058Z,14.52
2022-10-24T00:56:00.950Z,21.70
2022-10-24T00:58:30.961Z,24.98
2022-10-24T01:01:00.311Z,18.00
2022-10-24T01:03:28.120Z,17.95
2022-10-24T01:06:14.988Z,16.65
2022-10-24T01:08:50.310Z,23.38
2022-10-24T01:11:31.393Z,17.23
2022-10-24T01:14:09.291Z,21.55
2022-10-24T01:16:47.283Z,22.45
2022-10-24T01:19:32.103Z,19.75
2022-10-24T01:22:03.883Z,21.00
2022-10-24T01:24:46.095Z,32.00
2022-10-24T01:27:31.773Z,21.45
2022-10-24T01:30:08.870Z,18.48
2022-10-24T01:32:42.155Z,16.95
2022-10-24T01:35:23.014Z,16.70
2022-10-24T01:37:55.578Z,17.42
2022-10-24T01:40:29.592Z,18.10
2022-10-24T01:43:02.184Z,26.45
2022-10-24T01:45:34.584Z,27.08
2022-10-24T01:48:06.846Z,26.80
2022-10-24T01:50:37.536Z,24.52
2022-10-24T01:53:06.377Z,39.63
2022-10-24T01:55:34.230Z,32.90
2022-10-24T01:58:02.596Z,32.85
2022-10-24T02:00:31.913Z,18.90
2022-10-24T02:03:02.893Z,17.80
2022-10-24T02:05:34.088Z,39.33
2022-10-24T02:08:05.720Z,26.92
2022-10-24T02:10:38.443Z,26.45
2022-10-24T02:13:12.150Z,15.40
2022-10-24T02:15:44.316Z,32.25
2022-10-24T02:18:12.791Z,30.85
2022-10-24T02:20:47.917Z,28.95
2022-10-24T02:23:22.820Z,38.22
2022-10-24T02:25:55.605Z,46.03
2022-10-24T02:28:25.578Z,16.20
2022-10-24T02:31:00.594Z,36.20
2022-10-24T02:33:30.081Z,26.02
2022-10-24T02:35:58.947Z,21.95
2022-10-24T02:38:30.683Z,32.78
2022-10-24T02:40:59.895Z,16.10
2022-10-24T02:43:29.221Z,19.38
2022-10-24T02:45:59.697Z,18.85
2022-10-24T02:48:31.098Z,18.15
2022-10-24T02:50:59.373Z,37.35
2022-10-24T02:53:28.851Z,19.48
2022-10-24T02:55:56.470Z,19.45
2022-10-24T02:58:23.983Z,16.50
2022-10-24T03:00:51.515Z,17.20
2022-10-24T03:03:22.270Z,16.10
2022-10-24T03:05:49.987Z,28.80
2022-10-24T03:08:17.487Z,26.10
2022-10-24T03:10:45.025Z,23.80
2022-10-24T03:13:12.555Z,25.23
2022-10-24T03:15:40.115Z,20.02
2022-10-24T03:18:07.707Z,36.58
2022-10-24T03:20:36.631Z,30.58
2022-10-24T03:23:04.278Z,30.00
2022-10-24T03:25:31.798Z,33.58
2022-10-24T03:27:59.301Z,36.30
2022-10-24T03:30:26.829Z,28.45
2022-10-24T03:32:54.385Z,25.27
2022-10-24T03:35:21.972Z,32.78
2022-10-24T03:37:50.814Z,27.45
2022-10-24T03:40:18.448Z,35.97
2022-10-24T03:42:46.242Z,37.75
2022-10-24T03:45:14.040Z,42.33
2022-10-24T03:47:41.554Z,30.38
2022-10-24T03:50:09.853Z,38.33
2022-10-24T03:52:37.381Z,51.42
2022-10-24T03:55:07.196Z,33.42
2022-10-24T03:57:34.733Z,40.33
2022-10-24T04:00:02.279Z,37.03
2022-10-24T04:02:29.796Z,29.65
2022-10-24T04:04:57.313Z,23.77
2022-10-24T04:07:24.977Z,45.47
2022-10-24T04:09:52.501Z,70.93
2022-10-24T04:12:21.361Z,68.90
2022-10-24T04:14:48.891Z,56.45
2022-10-24T04:17:16.788Z,78.13
2022-10-24T04:19:44.384Z,87.28
2022-10-24T04:22:12.139Z,81.30
2022-10-24T04:24:40.273Z,112.22
2022-10-24T04:27:07.890Z,100.00
2022-10-24T04:29:37.024Z,123.82
2022-10-24T04:32:05.400Z,141.43
2022-10-24T04:34:35.807Z,116.18
2022-10-24T04:37:03.422Z,129.35
2022-10-24T04:39:31.088Z,121.30
2022-10-24T04:41:58.644Z,68.10
2022-10-24T04:44:26.161Z,50.33
2022-10-24T04:46:55.055Z,58.40
2022-10-24T04:49:22.596Z,65.80
2022-10-24T04:51:50.100Z,42.90
2022-10-24T04:54:17.624Z,44.20
2022-10-24T04:56:45.137Z,46.10
2022-10-24T04:59:12.635Z,48.55
2022-10-24T05:01:40.192Z,35.55
2022-10-24T05:04:09.200Z,35.22
2022-10-24T05:06:38.391Z,31.85
2022-10-24T05:09:07.828Z,44.50
2022-10-24T05:11:35.379Z,44.17
2022-10-24T05:14:02.867Z,42.75
2022-10-24T05:16:30.395Z,49.28
2022-10-24T05:18:57.940Z,26.90
2022-10-24T05:21:26.788Z,18.48
2022-10-24T05:23:54.588Z,18.35
2022-10-24T05:26:22.116Z,22.95
2022-10-24T05:28:52.419Z,32.60
2022-10-24T05:31:20.562Z,34.63
2022-10-24T05:33:48.104Z,32.58
2022-10-24T05:36:15.864Z,31.95
2022-10-24T05:38:44.780Z,33.08
2022-10-24T05:41:12.492Z,31.77
2022-10-24T05:43:40.004Z,39.42
2022-10-24T05:46:08.033Z,39.75
2022-10-24T05:48:36.445Z,43.88
2022-10-24T05:51:04.011Z,46.55
2022-10-24T05:53:31.550Z,43.63
2022-10-24T05:56:00.418Z,41.38
2022-10-24T05:58:27.907Z,44.28
2022-10-24T06:00:55.482Z,43.05
2022-10-24T06:03:23.098Z,36.85
2022-10-24T06:05:50.860Z,35.08
2022-10-24T06:08:19.136Z,40.53
2022-10-24T06:10:48.503Z,34.40
2022-10-24T06:13:18.407Z,37.13
2022-10-24T06:15:46.186Z,37.30
2022-10-24T06:18:13.690Z,40.67
2022-10-24T06:20:41.194Z,39.95
2022-10-24T06:23:08.758Z,33.95
2022-10-24T06:25:36.559Z,33.17
2022-10-24T06:28:04.375Z,33.30
2022-10-24T06:30:33.232Z,32.15
2022-10-24T06:33:01.341Z,34.45
2022-10-24T06:35:28.967Z,35.67
2022-10-24T06:37:56.477Z,32.60
2022-10-24T06:40:24.007Z,40.70
2022-10-24T06:42:51.577Z,29.88
2022-10-24T06:45:21.228Z,32.65
2022-10-24T06:47:52.003Z,30.67
2022-10-24T06:50:21.791Z,31.75
2022-10-24T06:52:49.332Z,28.40
2022-10-24T06:55:17.002Z,31.35
2022-10-24T06:57:44.827Z,37.05
2022-10-24T07:00:14.201Z,53.20
2022-10-24T07:02:41.967Z,53.38
2022-10-24T07:05:12.725Z,60.92
2022-10-24T07:07:41.690Z,64.63
2022-10-24T07:10:11.412Z,74.00
2022-10-24T07:12:38.931Z,80.30
2022-10-24T07:15:07.733Z,84.68
2022-10-24T07:17:40.571Z,46.17
2022-10-24T07:20:08.967Z,45.88
2022-10-24T07:22:38.220Z,34.58
2022-10-24T07:25:07.665Z,26.38
2022-10-24T07:27:35.362Z,17.95
2022-10-24T07:30:05.643Z,21.25
2022-10-24T07:32:33.877Z,22.13
2022-10-24T07:35:01.659Z,19.92
2022-10-24T07:37:29.187Z,29.00
2022-10-24T07:39:58.037Z,45.40
2022-10-24T07:42:25.531Z,24.73
2022-10-24T07:44:53.053Z,46.65
2022-10-24T07:47:20.550Z,23.67
2022-10-24T07:49:48.095Z,33.08
2022-10-24T07:52:15.612Z,36.80
2022-10-24T07:54:43.107Z,33.10
2022-10-24T07:57:11.969Z,34.90
2022-10-24T07:59:42.981Z,39.38
2022-10-24T08:02:12.038Z,29.10
2022-10-24T08:04:39.690Z,38.33
2022-10-24T08:07:12.940Z,38.05
2022-10-24T08:09:40.984Z,26.65
2022-10-24T08:12:08.922Z,29.33
2022-10-24T08:14:39.651Z,27.88
2022-10-24T08:17:07.555Z,28.77
2022-10-24T08:19:35.571Z,32.45
2022-10-24T08:22:03.857Z,35.47
2022-10-24T08:24:31.372Z,28.42
2022-10-24T08:26:58.904Z,25.67
2022-10-24T08:29:26.805Z,24.25
2022-10-24T08:31:57.485Z,19.90
2022-10-24T08:34:25.080Z,24.15
2022-10-24T08:36:52.710Z,21.33
2022-10-24T08:39:21.059Z,25.20
2022-10-24T08:41:54.558Z,19.48
2022-10-24T08:44:29.314Z,19.33
2022-10-24T08:47:03.817Z,28.45
2022-10-24T08:49:39.304Z,27.08
2022-10-24T08:52:18.042Z,23.92
2022-10-24T08:54:47.021Z,35.15
2022-10-24T08:57:23.076Z,46.40
2022-10-24T08:59:52.981Z,35.15
2022-10-24T09:02:25.845Z,26.42
2022-10-24T09:04:57.931Z,22.75
2022-10-24T09:07:26.634Z,16.67
2022-10-24T09:10:04.158Z,17.15
2022-10-24T09:12:31.719Z,19.23
2022-10-24T09:15:01.182Z,14.30
2022-10-24T09:17:33.475Z,10.20
2022-10-24T09:20:05.217Z,10.05
2022-10-24T09:22:38.422Z,10.43
2022-10-24T09:25:12.844Z,12.82
2022-10-24T09:27:41.818Z,11.35
2022-10-24T09:30:18.503Z,12.93
2022-10-24T09:32:48.106Z,14.93
2022-10-24T09:35:21.784Z,13.50
2022-10-24T09:37:55.170Z,13.32
2022-10-24T09:40:25.279Z,9.27
2022-10-24T09:42:57.093Z,11.80
2022-10-24T09:45:34.949Z,17.17
2022-10-24T09:48:07.158Z,15.90
2022-10-24T09:50:36.347Z,14.98
2022-10-24T09:53:05.544Z,14.43
2022-10-24T09:55:34.325Z,14.45
2022-10-24T09:58:05.291Z,17.20
2022-10-24T10:00:35.176Z,14.43
2022-10-24T10:03:07.115Z,12.15
2022-10-24T10:05:46.952Z,14.65
2022-10-24T10:08:20.658Z,14.20
2022-10-24T10:11:04.848Z,14.85
2022-10-24T10:13:38.365Z,15.63
2022-10-24T10:16:07.366Z,11.73
2022-10-24T10:18:46.320Z,13.40
2022-10-24T10:21:16.226Z,15.55
2022-10-24T10:23:45.259Z,13.57
2022-10-24T10:26:21.742Z,11.57
2022-10-24T10:28:57.767Z,13.65
2022-10-24T10:31:28.111Z,12.32
2022-10-24T10:34:08.461Z,24.70
2022-10-24T10:36:44.633Z,15.15
2022-10-24T10:39:30.550Z,15.00
2022-10-24T10:42:04.617Z,14.70
2022-10-24T10:44:55.064Z,18.00
2022-10-24T10:47:34.906Z,13.43
2022-10-24T10:50:20.537Z,14.90
2022-10-24T10:52:49.960Z,15.55
2022-10-24T10:55:27.232Z,15.65
2022-10-24T10:58:03.069Z,16.83
2022-10-24T11:00:40.997Z,12.85
2022-10-24T11:03:20.982Z,13.25
2022-10-24T11:05:59.595Z,23.83
2022-10-24T11:08:46.720Z,38.08
2022-10-24T11:11:18.345Z,34.20
2022-10-24T11:13:50.608Z,35.55
2022-10-24T11:16:22.989Z,26.60
2022-10-24T11:18:53.880Z,26.00
2022-10-24T11:21:26.136Z,30.63
2022-10-24T11:23:56.599Z,24.70
2022-10-24T11:26:31.344Z,28.58
2022-10-24T11:29:04.608Z,24.77
2022-10-24T11:31:38.440Z,28.52
2022-10-24T11:34:15.088Z,25.70
2022-10-24T11:36:50.820Z,28.13
2022-10-24T11:39:25.661Z,33.92
2022-10-24T11:41:59.671Z,36.20
2022-10-24T11:44:37.506Z,45.15
2022-10-24T11:47:31.906Z,57.67
2022-10-24T11:50:05.991Z,56.50
2022-10-24T11:52:39.599Z,65.10
2022-10-24T11:55:12.399Z,62.20
2022-10-24T11:57:44.079Z,58.83
2022-10-24T12:00:19.505Z,66.18
2022-10-24T12:03:10.880Z,54.10
2022-10-24T12:06:06.331Z,56.25
2022-10-24T12:09:05.276Z,60.63
2022-10-24T12:11:47.319Z,50.13
2022-10-24T12:14:32.495Z,51.17
2022-10-24T12:17:16.896Z,46.83
2022-10-24T12:19:46.226Z,50.13
2022-10-24T12:22:21.792Z,50.90
2022-10-24T12:25:02.652Z,59.72
2022-10-24T12:27:35.541Z,58.72
2022-10-24T12:30:15.966Z,57.38
2022-10-24T12:32:46.906Z,21.17
2022-10-24T12:35:46.933Z,46.10
2022-10-24T12:38:39.846Z,66.88
2022-10-24T12:41:40.504Z,62.92
2022-10-24T12:44:38.894Z,64.90
2022-10-24T12:47:35.771Z,61.00
2022-10-24T12:50:36.615Z,59.15
2022-10-24T12:53:16.627Z,52.55
2022-10-24T12:56:09.007Z,62.53
2022-10-24T12:58:39.374Z,67.82
2022-10-24T13:01:11.018Z,66.47
2022-10-24T13:03:56.431Z,62.03
2022-10-24T13:06:28.625Z,59.35
2022-10-24T13:09:11.960Z,74.20
2022-10-24T13:11:54.562Z,73.35
2022-10-24T13:14:55.462Z,48.80
2022-10-24T13:17:33.581Z,47.28
2022-10-24T13:20:14.332Z,25.48
2022-10-24T13:22:43.055Z,19.42
2022-10-24T13:25:22.538Z,18.27
2022-10-24T13:28:23.553Z,13.02
2022-10-24T13:31:23.489Z,10.48
2022-10-24T13:33:53.157Z,10.95
2022-10-24T13:36:28.212Z,14.95
2022-10-24T13:39:00.555Z,10.13
2022-10-24T13:41:32.209Z,10.55
2022-10-24T13:44:05.140Z,10.38
2022-10-24T13:46:41.818Z,8.73
2022-10-24T13:49:18.840Z,8.65
2022-10-24T13:51:51.860Z,7.78
2022-10-24T13:54:22.488Z,11.57
2022-10-24T13:56:51.371Z,7.55
2022-10-24T13:59:33.038Z,7.22
2022-10-24T14:02:06.225Z,7.70
2022-10-24T14:04:36.000Z,7.22
2022-10-24T14:07:05.786Z,7.07
2022-10-24T14:09:40.421Z,6.75
2022-10-24T14:12:09.037Z,6.80
2022-10-24T14:14:40.954Z,5.97
2022-10-24T14:17:23.369Z,7.35
2022-10-24T14:19:55.359Z,6.85
2022-10-24T14:22:25.138Z,7.22
2022-10-24T14:24:52.697Z,5.78
2022-10-24T14:27:21.307Z,6.53
2022-10-24T14:29:55.035Z,5.38
2022-10-24T14:32:25.819Z,6.60
2022-10-24T14:34:54.965Z,5.82
2022-10-24T14:37:28.591Z,5.95
2022-10-24T14:39:56.875Z,5.90
2022-10-24T14:42:25.151Z,6.95
2022-10-24T14:44:58.340Z,7.82
2022-10-24T14:47:30.031Z,7.15
2022-10-24T14:49:58.384Z,7.72
2022-10-24T14:52:36.336Z,8.10
2022-10-24T14:55:06.715Z,8.48
2022-10-24T14:57:35.936Z,9.05
2022-10-24T15:00:08.299Z,7.75
2022-10-24T15:02:42.952Z,7.82
2022-10-24T15:05:30.654Z,8.40
2022-10-24T15:08:21.029Z,7.75
2022-10-24T15:10:50.162Z,10.02
2022-10-24T15:13:21.452Z,7.30
2022-10-24T15:15:54.996Z,7.88
2022-10-24T15:18:25.999Z,9.18
2022-10-24T15:20:59.431Z,10.70
2022-10-24T15:23:30.091Z,8.85
2022-10-24T15:26:01.603Z,9.68
2022-10-24T15:28:45.292Z,8.77
2022-10-24T15:31:14.149Z,10.30
2022-10-24T15:33:43.041Z,9.57
2022-10-24T15:36:18.337Z,13.70
2022-10-24T15:38:45.914Z,10.32
2022-10-24T15:41:13.456Z,10.95
2022-10-24T15:43:40.969Z,10.82
2022-10-24T15:46:08.455Z,11.30
2022-10-24T15:48:35.974Z,18.40
2022-10-24T15:51:05.105Z,16.20
2022-10-24T15:53:32.844Z,13.35
2022-10-24T15:56:00.408Z,14.80
2022-10-24T15:58:28.679Z,13.25
2022-10-24T16:00:56.282Z,13.32
2022-10-24T16:03:24.787Z,11.55
2022-10-24T16:05:55.303Z,14.45
2022-10-24T16:08:24.175Z,12.35
2022-10-24T16:10:53.412Z,13.13
2022-10-24T16:13:23.110Z,19.80
2022-10-24T16:15:50.777Z,18.42
2022-10-24T16:18:18.548Z,22.58
2022-10-24T16:20:46.214Z,20.55
2022-10-24T16:23:16.867Z,16.98
2022-10-24T16:25:46.191Z,24.77
2022-10-24T16:28:13.720Z,20.38
2022-10-24T16:30:43.287Z,21.85
2022-10-24T16:33:10.793Z,18.75
2022-10-24T16:35:39.507Z,18.73
2022-10-24T16:38:08.973Z,18.55
2022-10-24T16:43:11.455Z,18.80
2022-10-24T16:45:39.044Z,17.77
2022-10-24T16:48:07.186Z,21.15
2022-10-24T16:50:34.824Z,17.50
2022-10-24T16:53:05.180Z,16.13
2022-10-24T16:55:33.060Z,17.63
2022-10-24T16:58:00.624Z,15.75
2022-10-24T17:00:30.318Z,16.65
2022-10-24T17:02:58.947Z,17.17
2022-10-24T17:05:28.973Z,16.92
2022-10-24T17:07:56.705Z,17.67
2022-10-24T17:10:25.019Z,17.95
2022-10-24T17:12:53.828Z,20.98
2022-10-24T17:15:22.403Z,32.15
2022-10-24T17:17:51.812Z,24.00
2022-10-24T17:20:19.876Z,29.30
2022-10-24T17:22:48.311Z,35.83
2022-10-24T17:25:21.092Z,31.45
2022-10-24T17:27:49.799Z,31.60
2022-10-24T17:30:19.572Z,29.35
2022-10-24T17:32:47.755Z,24.98
2022-10-24T17:35:20.474Z,21.52
2022-10-24T17:37:58.130Z,20.38
2022-10-24T17:40:29.020Z,21.27
2022-10-24T17:42:57.181Z,18.48
2022-10-24T17:45:25.856Z,14.55
2022-10-24T17:47:53.557Z,17.42
2022-10-24T17:50:22.432Z,21.95
2022-10-24T17:52:52.088Z,18.35
2022-10-24T17:55:41.050Z,21.40
2022-10-24T17:58:09.312Z,18.42
2022-10-24T18:00:37.693Z,20.17
2022-10-24T18:03:05.694Z,17.83
2022-10-24T18:05:37.468Z,18.50
2022-10-24T18:08:05.314Z,22.65
2022-10-24T18:10:33.412Z,18.65
2022-10-24T18:13:01.798Z,19.55
2022-10-24T18:15:29.547Z,18.90
2022-10-24T18:17:57.068Z,20.58
2022-10-24T18:20:24.642Z,22.35
2022-10-24T18:22:53.727Z,19.27
2022-10-24T18:25:23.146Z,16.48
2022-10-24T18:27:51.335Z,16.63
2022-10-24T18:30:20.072Z,17.73
2022-10-24T18:32:48.456Z,14.80
2022-10-24T18:35:16.454Z,15.75
2022-10-24T18:37:44.058Z,16.52
2022-10-24T18:40:14.411Z,13.15
2022-10-24T18:42:48.852Z,12.18
2022-10-24T18:45:20.980Z,12.65
2022-10-24T18:47:49.138Z,15.27
2022-10-24T18:50:19.335Z,10.32
2022-10-24T18:52:52.428Z,10.85
2022-10-24T18:55:23.367Z,14.20
2022-10-24T18:57:52.031Z,13.43
2022-10-24T19:00:21.800Z,11.75
2022-10-24T19:02:56.893Z,14.27
2022-10-24T19:05:32.216Z,12.38
2022-10-24T19:07:59.926Z,10.95
2022-10-24T19:10:29.441Z,9.63
2022-10-24T19:12:57.372Z,11.82
2022-10-24T19:15:25.759Z,11.98
2022-10-24T19:17:53.339Z,11.98
2022-10-24T19:20:23.369Z,14.68
2022-10-24T19:22:51.284Z,14.93
2022-10-24T19:25:19.667Z,12.10
2022-10-24T19:27:49.275Z,12.75
2022-10-24T19:30:16.849Z,10.80
2022-10-24T19:32:44.573Z,12.68
2022-10-24T19:35:12.302Z,12.07
2022-10-24T19:37:39.868Z,8.98
2022-10-24T19:40:08.964Z,10.95
2022-10-24T19:42:36.818Z,11.73
2022-10-24T19:45:07.493Z,10.40
2022-10-24T19:47:35.447Z,8.68
2022-10-24T19:50:02.979Z,11.80
2022-10-24T19:52:30.511Z,10.52
2022-10-24T19:54:58.032Z,9.85
2022-10-24T19:57:25.585Z,14.57
2022-10-24T19:59:53.783Z,12.02
2022-10-24T20:02:22.876Z,10.88
2022-10-24T20:04:50.384Z,8.95
2022-10-24T20:07:18.208Z,9.30
2022-10-24T20:09:45.757Z,9.73
2022-10-24T20:12:13.480Z,9.27
2022-10-24T20:14:40.983Z,10.52
2022-10-24T20:17:08.494Z,8.95
2022-10-24T20:19:37.413Z,10.25
2022-10-24T20:22:04.934Z,11.38
2022-10-24T20:24:33.460Z,9.32
2022-10-24T20:27:01.686Z,10.07
2022-10-24T20:29:29.268Z,9.73
2022-10-24T20:31:56.910Z,9.85
2022-10-24T20:34:24.462Z,11.93
2022-10-24T20:36:53.341Z,14.32
2022-10-24T20:39:21.375Z,13.68
2022-10-24T20:41:51.893Z,10.07
2022-10-24T20:44:21.965Z,11.13
2022-10-24T20:46:49.527Z,10.13
2022-10-24T20:49:17.064Z,10.35
2022-10-24T20:51:44.573Z,10.25
2022-10-24T20:54:13.801Z,12.98
2022-10-24T20:56:42.742Z,10.18
2022-10-24T20:59:13.027Z,9.25
2022-10-24T21:01:41.131Z,7.55
2022-10-24T21:04:08.959Z,7.55
2022-10-24T21:06:36.992Z,14.25
2022-10-24T21:09:06.962Z,11.70
2022-10-24T21:11:36.769Z,12.73
2022-10-24T21:14:06.203Z,16.23
2022-10-24T21:16:34.454Z,12.25
2022-10-24T21:19:02.290Z,15.07
2022-10-24T21:21:30.297Z,17.42
2022-10-24T21:24:02.495Z,16.65
2022-10-24T21:26:33.565Z,18.40
2022-10-24T21:29:15.015Z,18.58
2022-10-24T21:31:50.473Z,16.58
2022-10-24T21:34:18.192Z,19.75
2022-10-24T21:36:46.069Z,19.52
2022-10-24T21:39:14.986Z,19.77
2022-10-24T21:41:42.868Z,17.38
2022-10-24T21:44:12.395Z,17.27
2022-10-24T21:46:39.932Z,15.93
2022-10-24T21:49:07.480Z,18.58
2022-10-24T21:51:37.279Z,16.20
2022-10-24T21:54:06.740Z,18.80
2022-10-24T21:56:36.887Z,17.40
2022-10-24T21:59:06.720Z,19.25
2022-10-24T22:01:38.054Z,19.48
2022-10-24T22:04:07.059Z,17.92
2022-10-24T22:06:36.309Z,20.92
2022-10-24T22:09:04.747Z,15.77
2022-10-24T22:11:34.142Z,21.20
2022-10-24T22:14:03.192Z,21.50
2022-10-24T22:16:32.291Z,19.42
2022-10-24T22:19:02.755Z,18.15
2022-10-24T22:21:32.170Z,18.67
2022-10-24T22:24:01.400Z,18.15
2022-10-24T22:26:29.661Z,18.40
2022-10-24T22:28:57.693Z,20.95
2022-10-24T22:31:26.965Z,20.33
2022-10-24T22:33:56.015Z,22.83
2022-10-24T22:36:41.061Z,23.52
2022-10-24T22:39:14.484Z,20.60
2022-10-24T22:41:42.818Z,16.88
2022-10-24T22:44:12.573Z,13.98
2022-10-24T22:47:07.168Z,13.07
2022-10-24T22:49:46.904Z,15.38
2022-10-24T22:52:16.369Z,11.18
2022-10-24T22:54:44.426Z,9.93
2022-10-24T22:57:12.447Z,11.38
2022-10-24T22:59:40.640Z,10.13
2022-10-24T23:02:24.420Z,8.70
2022-10-24T23:05:00.040Z,8.32
2022-10-24T23:07:37.195Z,7.22
2022-10-24T23:10:06.082Z,8.00
2022-10-24T23:12:34.202Z,8.35
2022-10-24T23:15:02.221Z,9.82
2022-10-24T23:17:32.788Z,10.55
2022-10-24T23:20:01.143Z,13.85
2022-10-24T23:22:32.187Z,13.63
2022-10-24T23:25:02.232Z,16.77
2022-10-24T23:27:35.710Z,18.83
2022-10-24T23:30:06.429Z,16.30
2022-10-24T23:32:38.235Z,19.02
2022-10-24T23:35:07.245Z,21.77
2022-10-24T23:37:38.269Z,21.98
2022-10-24T23:40:22.376Z,29.90
2022-10-24T23:42:51.295Z,29.33
2022-10-24T23:45:20.814Z,32.83
2022-10-24T23:48:06.066Z,33.33
2022-10-24T23:50:41.191Z,25.85
2022-10-24T23:53:23.736Z,28.05
2022-10-24T23:55:51.949Z,25.25
2022-10-24T23:58:19.534Z,27.42
